sensor_id;sensor_type;location;lat;lon;timestamp;P1;durP1;ratioP1;P2;durP2;ratioP2
12658;SDS011;6394;52.488;13.386;2022-10-31T00:00:21;28.57;;;19.17;;
12658;SDS011;6394;52.488;13.386;2022-10-31T00:02:49;28.83;;;19.90;;
12658;SDS011;6394;52.488;13.386;2022-10-31T00:05:16;24.27;;;18.70;;
12658;SDS011;6394;52.488;13.386;2022-10-31T00:07:43;27.13;;;18.70;;
12658;SDS011;6394;52.488;13.386;2022-10-31T00:10:11;26.23;;;19.13;;
12658;SDS011;6394;52.488;13.386;2022-10-31T00:12:38;26.17;;;19.60;;
12658;SDS011;6394;52.488;13.386;2022-10-31T00:15:05;22.83;;;18.37;;
12658;SDS011;6394;52.488;13.386;2022-10-31T00:17:35;31.37;;;19.23;;
12658;SDS011;6394;52.488;13.386;2022-10-31T00:20:03;23.57;;;16.43;;
12658;SDS011;6394;52.488;13.386;2022-10-31T00:22:30;22.33;;;17.13;;
12658;SDS011;6394;52.488;13.386;2022-10-31T00:24:57;27.83;;;18.77;;
12658;SDS011;6394;52.488;13.386;2022-10-31T00:27:24;24.60;;;16.97;;
12658;SDS011;6394;52.488;13.386;2022-10-31T00:29:51;26.20;;;17.67;;
12658;SDS011;6394;52.488;13.386;2022-10-31T00:32:18;25.80;;;17.27;;
12658;SDS011;6394;52.488;13.386;2022-10-31T00:34:47;26.50;;;18.97;;
12658;SDS011;6394;52.488;13.386;2022-10-31T00:37:15;28.63;;;19.17;;
12658;SDS011;6394;52.488;13.386;2022-10-31T00:39:42;24.83;;;18.53;;
12658;SDS011;6394;52.488;13.386;2022-10-31T00:42:10;22.47;;;17.20;;
12658;SDS011;6394;52.488;13.386;2022-10-31T00:44:37;24.53;;;17.20;;
12658;SDS011;6394;52.488;13.386;2022-10-31T00:47:04;21.23;;;17.10;;
12658;SDS011;6394;52.488;13.386;2022-10-31T00:49:31;24.20;;;17.23;;
12658;SDS011;6394;52.488;13.386;2022-10-31T00:52:00;25.90;;;18.00;;
12658;SDS011;6394;52.488;13.386;2022-10-31T00:54:27;23.37;;;17.73;;
12658;SDS011;6394;52.488;13.386;2022-10-31T00:56:56;19.50;;;17.37;;
12658;SDS011;6394;52.488;13.386;2022-10-31T00:59:23;23.87;;;17.07;;
12658;SDS011;6394;52.488;13.386;2022-10-31T01:01:50;25.93;;;17.97;;
12658;SDS011;6394;52.488;13.386;2022-10-31T01:04:18;23.40;;;16.30;;
12658;SDS011;6394;52.488;13.386;2022-10-31T01:06:46;27.97;;;16.90;;
12658;SDS011;6394;52.488;13.386;2022-10-31T01:09:15;21.60;;;15.37;;
12658;SDS011;6394;52.488;13.386;2022-10-31T01:11:42;29.77;;;17.00;;
12658;SDS011;6394;52.488;13.386;2022-10-31T01:14:09;23.23;;;16.50;;
12658;SDS011;6394;52.488;13.386;2022-10-31T01:16:37;24.33;;;16.30;;
12658;SDS011;6394;52.488;13.386;2022-10-31T01:19:04;25.97;;;16.30;;
12658;SDS011;6394;52.488;13.386;2022-10-31T01:21:31;22.53;;;16.90;;
12658;SDS011;6394;52.488;13.386;2022-10-31T01:23:58;24.77;;;17.37;;
12658;SDS011;6394;52.488;13.386;2022-10-31T01:26:28;25.67;;;17.30;;
12658;SDS011;6394;52.488;13.386;2022-10-31T01:28:56;25.13;;;17.20;;
12658;SDS011;6394;52.488;13.386;2022-10-31T01:31:24;25.43;;;16.83;;
12658;SDS011;6394;52.488;13.386;2022-10-31T01:33:53;23.73;;;15.93;;
12658;SDS011;6394;52.488;13.386;2022-10-31T01:36:21;23.07;;;16.10;;
12658;SDS011;6394;52.488;13.386;2022-10-31T01:38:49;20.20;;;15.90;;
12658;SDS011;6394;52.488;13.386;2022-10-31T01:41:17;23.27;;;16.17;;
12658;SDS011;6394;52.488;13.386;2022-10-31T01:43:47;22.07;;;16.03;;
12658;SDS011;6394;52.488;13.386;2022-10-31T01:46:15;21.17;;;15.13;;
12658;SDS011;6394;52.488;13.386;2022-10-31T01:48:43;24.37;;;16.67;;
12658;SDS011;6394;52.488;13.386;2022-10-31T01:51:11;23.07;;;15.40;;
12658;SDS011;6394;52.488;13.386;2022-10-31T01:53:39;19.60;;;15.20;;
12658;SDS011;6394;52.488;13.386;2022-10-31T01:56:07;18.80;;;15.27;;
12658;SDS011;6394;52.488;13.386;2022-10-31T01:58:34;21.70;;;15.67;;
12658;SDS011;6394;52.488;13.386;2022-10-31T02:01:03;21.93;;;16.77;;
12658;SDS011;6394;52.488;13.386;2022-10-31T02:03:31;26.83;;;15.50;;
12658;SDS011;6394;52.488;13.386;2022-10-31T02:05:59;20.53;;;14.67;;
12658;SDS011;6394;52.488;13.386;2022-10-31T02:08:28;20.17;;;14.67;;
12658;SDS011;6394;52.488;13.386;2022-10-31T02:10:56;19.87;;;14.93;;
12658;SDS011;6394;52.488;13.386;2022-10-31T02:13:23;20.80;;;14.13;;
12658;SDS011;6394;52.488;13.386;2022-10-31T02:15:52;18.07;;;14.13;;
12658;SDS011;6394;52.488;13.386;2022-10-31T02:18:21;21.53;;;14.67;;
12658;SDS011;6394;52.488;13.386;2022-10-31T02:20:54;20.97;;;14.83;;
12658;SDS011;6394;52.488;13.386;2022-10-31T02:23:39;16.90;;;13.60;;
12658;SDS011;6394;52.488;13.386;2022-10-31T02:26:14;18.87;;;14.27;;
12658;SDS011;6394;52.488;13.386;2022-10-31T02:29:05;22.40;;;13.97;;
12658;SDS011;6394;52.488;13.386;2022-10-31T02:31:41;18.07;;;14.40;;
12658;SDS011;6394;52.488;13.386;2022-10-31T02:34:11;21.00;;;14.17;;
12658;SDS011;6394;52.488;13.386;2022-10-31T02:36:42;22.43;;;14.67;;
12658;SDS011;6394;52.488;13.386;2022-10-31T02:39:11;19.87;;;13.73;;
12658;SDS011;6394;52.488;13.386;2022-10-31T02:41:41;22.10;;;14.30;;
12658;SDS011;6394;52.488;13.386;2022-10-31T02:44:13;20.00;;;14.43;;
12658;SDS011;6394;52.488;13.386;2022-10-31T02:46:44;19.07;;;14.03;;
12658;SDS011;6394;52.488;13.386;2022-10-31T02:49:17;20.90;;;14.10;;
12658;SDS011;6394;52.488;13.386;2022-10-31T02:51:45;16.37;;;13.40;;
12658;SDS011;6394;52.488;13.386;2022-10-31T02:54:17;20.83;;;14.80;;
12658;SDS011;6394;52.488;13.386;2022-10-31T02:56:44;21.13;;;14.53;;
12658;SDS011;6394;52.488;13.386;2022-10-31T02:59:12;18.43;;;13.33;;
12658;SDS011;6394;52.488;13.386;2022-10-31T03:01:44;20.97;;;13.80;;
12658;SDS011;6394;52.488;13.386;2022-10-31T03:07:00;17.30;;;12.73;;
12658;SDS011;6394;52.488;13.386;2022-10-31T03:09:32;19.73;;;12.47;;
12658;SDS011;6394;52.488;13.386;2022-10-31T03:12:03;22.83;;;13.67;;
12658;SDS011;6394;52.488;13.386;2022-10-31T03:14:33;18.10;;;13.67;;
12658;SDS011;6394;52.488;13.386;2022-10-31T03:17:06;16.80;;;12.60;;
12658;SDS011;6394;52.488;13.386;2022-10-31T03:19:34;16.83;;;12.37;;
12658;SDS011;6394;52.488;13.386;2022-10-31T03:22:04;17.63;;;12.63;;
12658;SDS011;6394;52.488;13.386;2022-10-31T03:24:34;18.37;;;12.60;;
12658;SDS011;6394;52.488;13.386;2022-10-31T03:27:02;21.23;;;12.50;;
12658;SDS011;6394;52.488;13.386;2022-10-31T03:29:33;18.33;;;12.03;;
12658;SDS011;6394;52.488;13.386;2022-10-31T03:32:02;18.03;;;11.43;;
12658;SDS011;6394;52.488;13.386;2022-10-31T03:34:31;19.03;;;11.77;;
12658;SDS011;6394;52.488;13.386;2022-10-31T03:36:59;15.73;;;11.53;;
12658;SDS011;6394;52.488;13.386;2022-10-31T03:39:27;19.60;;;11.57;;
12658;SDS011;6394;52.488;13.386;2022-10-31T03:41:56;20.93;;;11.57;;
12658;SDS011;6394;52.488;13.386;2022-10-31T03:44:25;16.17;;;11.73;;
12658;SDS011;6394;52.488;13.386;2022-10-31T03:46:53;17.23;;;10.97;;
12658;SDS011;6394;52.488;13.386;2022-10-31T03:49:20;20.03;;;11.37;;
12658;SDS011;6394;52.488;13.386;2022-10-31T03:51:51;17.90;;;11.20;;
12658;SDS011;6394;52.488;13.386;2022-10-31T03:54:21;22.30;;;12.40;;
12658;SDS011;6394;52.488;13.386;2022-10-31T03:56:50;20.27;;;12.13;;
12658;SDS011;6394;52.488;13.386;2022-10-31T03:59:19;15.50;;;11.53;;
12658;SDS011;6394;52.488;13.386;2022-10-31T04:01:49;14.83;;;12.00;;
12658;SDS011;6394;52.488;13.386;2022-10-31T04:04:17;17.57;;;11.10;;
12658;SDS011;6394;52.488;13.386;2022-10-31T04:06:45;17.63;;;12.20;;
12658;SDS011;6394;52.488;13.386;2022-10-31T04:09:15;17.80;;;10.83;;
12658;SDS011;6394;52.488;13.386;2022-10-31T04:11:44;17.90;;;11.53;;
12658;SDS011;6394;52.488;13.386;2022-10-31T04:14:12;19.33;;;11.50;;
12658;SDS011;6394;52.488;13.386;2022-10-31T04:16:40;16.00;;;10.97;;
12658;SDS011;6394;52.488;13.386;2022-10-31T04:19:08;17.03;;;11.97;;
12658;SDS011;6394;52.488;13.386;2022-10-31T04:21:36;15.60;;;11.33;;
12658;SDS011;6394;52.488;13.386;2022-10-31T04:24:03;17.40;;;10.97;;
12658;SDS011;6394;52.488;13.386;2022-10-31T04:26:32;21.17;;;11.53;;
12658;SDS011;6394;52.488;13.386;2022-10-31T04:28:59;19.77;;;12.07;;
12658;SDS011;6394;52.488;13.386;2022-10-31T04:31:26;18.40;;;12.13;;
12658;SDS011;6394;52.488;13.386;2022-10-31T04:33:53;18.67;;;11.80;;
12658;SDS011;6394;52.488;13.386;2022-10-31T04:36:20;20.63;;;11.67;;
12658;SDS011;6394;52.488;13.386;2022-10-31T04:38:48;16.50;;;11.13;;
12658;SDS011;6394;52.488;13.386;2022-10-31T04:41:15;19.47;;;11.63;;
12658;SDS011;6394;52.488;13.386;2022-10-31T04:43:43;21.83;;;12.30;;
12658;SDS011;6394;52.488;13.386;2022-10-31T04:46:10;18.03;;;10.70;;
12658;SDS011;6394;52.488;13.386;2022-10-31T04:48:38;14.47;;;11.17;;
12658;SDS011;6394;52.488;13.386;2022-10-31T04:51:07;16.63;;;11.10;;
12658;SDS011;6394;52.488;13.386;2022-10-31T04:53:34;15.47;;;10.63;;
12658;SDS011;6394;52.488;13.386;2022-10-31T04:56:01;20.40;;;11.67;;
12658;SDS011;6394;52.488;13.386;2022-10-31T04:58:28;15.97;;;10.93;;
12658;SDS011;6394;52.488;13.386;2022-10-31T05:00:57;15.10;;;11.60;;
12658;SDS011;6394;52.488;13.386;2022-10-31T05:03:24;20.67;;;11.60;;
12658;SDS011;6394;52.488;13.386;2022-10-31T05:05:51;15.73;;;11.57;;
12658;SDS011;6394;52.488;13.386;2022-10-31T05:08:18;17.90;;;11.37;;
12658;SDS011;6394;52.488;13.386;2022-10-31T05:10:46;16.50;;;12.17;;
12658;SDS011;6394;52.488;13.386;2022-10-31T05:13:13;18.53;;;11.77;;
12658;SDS011;6394;52.488;13.386;2022-10-31T05:15:41;18.67;;;12.20;;
12658;SDS011;6394;52.488;13.386;2022-10-31T05:18:09;17.00;;;11.63;;
12658;SDS011;6394;52.488;13.386;2022-10-31T05:20:36;15.60;;;11.87;;
12658;SDS011;6394;52.488;13.386;2022-10-31T05:23:04;16.60;;;12.20;;
12658;SDS011;6394;52.488;13.386;2022-10-31T05:25:31;21.30;;;12.33;;
12658;SDS011;6394;52.488;13.386;2022-10-31T05:27:58;18.50;;;12.17;;
12658;SDS011;6394;52.488;13.386;2022-10-31T05:30:27;16.80;;;11.57;;
12658;SDS011;6394;52.488;13.386;2022-10-31T05:32:55;16.67;;;10.90;;
12658;SDS011;6394;52.488;13.386;2022-10-31T05:35:25;18.23;;;12.27;;
12658;SDS011;6394;52.488;13.386;2022-10-31T05:37:52;16.47;;;11.87;;
12658;SDS011;6394;52.488;13.386;2022-10-31T05:40:20;18.83;;;12.40;;
12658;SDS011;6394;52.488;13.386;2022-10-31T05:42:50;18.70;;;11.93;;
12658;SDS011;6394;52.488;13.386;2022-10-31T05:45:18;19.93;;;12.07;;
12658;SDS011;6394;52.488;13.386;2022-10-31T05:47:51;19.03;;;12.40;;
12658;SDS011;6394;52.488;13.386;2022-10-31T05:50:18;18.17;;;10.93;;
12658;SDS011;6394;52.488;13.386;2022-10-31T05:52:47;14.83;;;11.53;;
12658;SDS011;6394;52.488;13.386;2022-10-31T05:55:15;19.17;;;12.03;;
12658;SDS011;6394;52.488;13.386;2022-10-31T05:57:42;21.20;;;12.03;;
12658;SDS011;6394;52.488;13.386;2022-10-31T06:00:10;18.50;;;11.73;;
12658;SDS011;6394;52.488;13.386;2022-10-31T06:02:42;19.20;;;11.83;;
12658;SDS011;6394;52.488;13.386;2022-10-31T06:05:09;18.30;;;12.00;;
12658;SDS011;6394;52.488;13.386;2022-10-31T06:07:37;19.87;;;13.07;;
12658;SDS011;6394;52.488;13.386;2022-10-31T06:10:07;17.80;;;11.83;;
12658;SDS011;6394;52.488;13.386;2022-10-31T06:12:35;20.47;;;11.77;;
12658;SDS011;6394;52.488;13.386;2022-10-31T06:15:03;20.87;;;11.73;;
12658;SDS011;6394;52.488;13.386;2022-10-31T06:17:31;18.67;;;10.77;;
12658;SDS011;6394;52.488;13.386;2022-10-31T06:19:58;15.90;;;11.57;;
12658;SDS011;6394;52.488;13.386;2022-10-31T06:22:25;18.73;;;12.40;;
12658;SDS011;6394;52.488;13.386;2022-10-31T06:24:53;16.30;;;11.73;;
12658;SDS011;6394;52.488;13.386;2022-10-31T06:27:21;16.00;;;11.43;;
12658;SDS011;6394;52.488;13.386;2022-10-31T06:29:49;17.80;;;11.97;;
12658;SDS011;6394;52.488;13.386;2022-10-31T06:32:16;19.70;;;11.87;;
12658;SDS011;6394;52.488;13.386;2022-10-31T06:34:44;18.70;;;11.10;;
12658;SDS011;6394;52.488;13.386;2022-10-31T06:37:13;15.87;;;11.97;;
12658;SDS011;6394;52.488;13.386;2022-10-31T06:39:40;22.00;;;12.10;;
12658;SDS011;6394;52.488;13.386;2022-10-31T06:42:07;25.77;;;12.97;;
12658;SDS011;6394;52.488;13.386;2022-10-31T06:44:36;16.73;;;11.30;;
12658;SDS011;6394;52.488;13.386;2022-10-31T06:47:04;22.97;;;12.20;;
12658;SDS011;6394;52.488;13.386;2022-10-31T06:49:32;20.53;;;12.40;;
12658;SDS011;6394;52.488;13.386;2022-10-31T06:51:59;22.67;;;13.53;;
12658;SDS011;6394;52.488;13.386;2022-10-31T06:54:26;17.90;;;12.37;;
12658;SDS011;6394;52.488;13.386;2022-10-31T06:56:54;16.63;;;11.50;;
12658;SDS011;6394;52.488;13.386;2022-10-31T06:59:21;18.67;;;12.60;;
12658;SDS011;6394;52.488;13.386;2022-10-31T07:01:50;18.53;;;13.00;;
12658;SDS011;6394;52.488;13.386;2022-10-31T07:04:17;19.13;;;13.27;;
12658;SDS011;6394;52.488;13.386;2022-10-31T07:06:44;23.77;;;12.07;;
12658;SDS011;6394;52.488;13.386;2022-10-31T07:09:12;17.27;;;12.10;;
12658;SDS011;6394;52.488;13.386;2022-10-31T07:11:39;16.80;;;11.97;;
12658;SDS011;6394;52.488;13.386;2022-10-31T07:14:06;19.70;;;12.67;;
12658;SDS011;6394;52.488;13.386;2022-10-31T07:16:33;21.40;;;13.30;;
12658;SDS011;6394;52.488;13.386;2022-10-31T07:19:02;20.33;;;12.90;;
12658;SDS011;6394;52.488;13.386;2022-10-31T07:21:29;19.83;;;13.23;;
12658;SDS011;6394;52.488;13.386;2022-10-31T07:23:56;21.97;;;13.13;;
12658;SDS011;6394;52.488;13.386;2022-10-31T07:26:24;19.03;;;12.77;;
12658;SDS011;6394;52.488;13.386;2022-10-31T07:28:54;19.10;;;13.33;;
12658;SDS011;6394;52.488;13.386;2022-10-31T07:31:24;20.27;;;13.50;;
12658;SDS011;6394;52.488;13.386;2022-10-31T07:33:51;24.70;;;12.87;;
12658;SDS011;6394;52.488;13.386;2022-10-31T07:36:20;19.33;;;12.43;;
12658;SDS011;6394;52.488;13.386;2022-10-31T07:38:49;22.10;;;13.83;;
12658;SDS011;6394;52.488;13.386;2022-10-31T07:41:16;23.03;;;13.50;;
12658;SDS011;6394;52.488;13.386;2022-10-31T07:43:43;23.37;;;13.80;;
12658;SDS011;6394;52.488;13.386;2022-10-31T07:46:11;23.67;;;13.70;;
12658;SDS011;6394;52.488;13.386;2022-10-31T07:48:38;20.50;;;15.40;;
12658;SDS011;6394;52.488;13.386;2022-10-31T07:51:06;22.97;;;15.13;;
12658;SDS011;6394;52.488;13.386;2022-10-31T07:53:34;23.60;;;15.40;;
12658;SDS011;6394;52.488;13.386;2022-10-31T07:56:02;27.53;;;15.60;;
12658;SDS011;6394;52.488;13.386;2022-10-31T07:58:29;28.87;;;16.93;;
12658;SDS011;6394;52.488;13.386;2022-10-31T08:00:59;26.57;;;16.23;;
12658;SDS011;6394;52.488;13.386;2022-10-31T08:03:26;25.17;;;17.50;;
12658;SDS011;6394;52.488;13.386;2022-10-31T08:05:54;25.73;;;16.73;;
12658;SDS011;6394;52.488;13.386;2022-10-31T08:08:21;24.33;;;16.60;;
12658;SDS011;6394;52.488;13.386;2022-10-31T08:10:50;26.60;;;17.00;;
12658;SDS011;6394;52.488;13.386;2022-10-31T08:13:17;24.47;;;16.20;;
12658;SDS011;6394;52.488;13.386;2022-10-31T08:15:45;25.30;;;16.77;;
12658;SDS011;6394;52.488;13.386;2022-10-31T08:18:15;29.03;;;17.17;;
12658;SDS011;6394;52.488;13.386;2022-10-31T08:20:43;23.50;;;17.57;;
12658;SDS011;6394;52.488;13.386;2022-10-31T08:23:10;29.03;;;17.83;;
12658;SDS011;6394;52.488;13.386;2022-10-31T08:25:38;27.93;;;17.53;;
12658;SDS011;6394;52.488;13.386;2022-10-31T08:28:08;28.50;;;17.47;;
12658;SDS011;6394;52.488;13.386;2022-10-31T08:30:36;25.77;;;17.17;;
12658;SDS011;6394;52.488;13.386;2022-10-31T08:33:04;31.43;;;17.47;;
12658;SDS011;6394;52.488;13.386;2022-10-31T08:35:32;26.20;;;19.13;;
12658;SDS011;6394;52.488;13.386;2022-10-31T08:37:59;24.83;;;17.80;;
12658;SDS011;6394;52.488;13.386;2022-10-31T08:40:27;29.43;;;17.83;;
12658;SDS011;6394;52.488;13.386;2022-10-31T08:42:55;28.20;;;18.33;;
12658;SDS011;6394;52.488;13.386;2022-10-31T08:45:24;28.70;;;19.10;;
12658;SDS011;6394;52.488;13.386;2022-10-31T08:47:52;24.10;;;18.53;;
12658;SDS011;6394;52.488;13.386;2022-10-31T08:50:23;25.03;;;19.17;;
12658;SDS011;6394;52.488;13.386;2022-10-31T08:52:50;25.07;;;18.40;;
12658;SDS011;6394;52.488;13.386;2022-10-31T08:55:17;32.23;;;19.23;;
12658;SDS011;6394;52.488;13.386;2022-10-31T08:57:44;30.57;;;18.53;;
12658;SDS011;6394;52.488;13.386;2022-10-31T09:00:12;26.63;;;18.23;;
12658;SDS011;6394;52.488;13.386;2022-10-31T09:02:40;27.17;;;18.20;;
12658;SDS011;6394;52.488;13.386;2022-10-31T09:05:08;33.27;;;18.73;;
12658;SDS011;6394;52.488;13.386;2022-10-31T09:07:35;25.77;;;19.57;;
12658;SDS011;6394;52.488;13.386;2022-10-31T09:10:02;32.00;;;19.07;;
12658;SDS011;6394;52.488;13.386;2022-10-31T09:12:30;30.47;;;20.40;;
12658;SDS011;6394;52.488;13.386;2022-10-31T09:14:57;28.17;;;19.37;;
12658;SDS011;6394;52.488;13.386;2022-10-31T09:17:26;31.97;;;20.37;;
12658;SDS011;6394;52.488;13.386;2022-10-31T09:19:55;30.67;;;20.93;;
12658;SDS011;6394;52.488;13.386;2022-10-31T09:22:23;26.90;;;20.73;;
12658;SDS011;6394;52.488;13.386;2022-10-31T09:24:50;32.10;;;20.97;;
12658;SDS011;6394;52.488;13.386;2022-10-31T09:27:17;30.83;;;20.73;;
12658;SDS011;6394;52.488;13.386;2022-10-31T09:29:44;29.77;;;20.07;;
12658;SDS011;6394;52.488;13.386;2022-10-31T09:32:11;31.70;;;20.80;;
12658;SDS011;6394;52.488;13.386;2022-10-31T09:34:39;31.83;;;20.03;;
12658;SDS011;6394;52.488;13.386;2022-10-31T09:37:07;32.53;;;20.30;;
12658;SDS011;6394;52.488;13.386;2022-10-31T09:39:34;32.60;;;21.33;;
12658;SDS011;6394;52.488;13.386;2022-10-31T09:42:09;29.73;;;21.17;;
12658;SDS011;6394;52.488;13.386;2022-10-31T09:44:46;29.60;;;20.37;;
12658;SDS011;6394;52.488;13.386;2022-10-31T09:47:17;30.83;;;20.43;;
12658;SDS011;6394;52.488;13.386;2022-10-31T09:49:52;26.57;;;19.67;;
12658;SDS011;6394;52.488;13.386;2022-10-31T09:52:22;31.60;;;20.90;;
12658;SDS011;6394;52.488;13.386;2022-10-31T09:54:52;32.03;;;20.60;;
12658;SDS011;6394;52.488;13.386;2022-10-31T09:57:22;30.07;;;21.20;;
12658;SDS011;6394;52.488;13.386;2022-10-31T09:59:51;34.80;;;22.13;;
12658;SDS011;6394;52.488;13.386;2022-10-31T10:02:20;30.00;;;21.13;;
12658;SDS011;6394;52.488;13.386;2022-10-31T10:04:51;27.27;;;21.13;;
12658;SDS011;6394;52.488;13.386;2022-10-31T10:07:24;30.83;;;21.07;;
12658;SDS011;6394;52.488;13.386;2022-10-31T10:09:52;31.30;;;21.23;;
12658;SDS011;6394;52.488;13.386;2022-10-31T10:12:22;29.97;;;21.40;;
12658;SDS011;6394;52.488;13.386;2022-10-31T10:14:56;33.20;;;21.37;;
12658;SDS011;6394;52.488;13.386;2022-10-31T10:17:30;27.47;;;20.23;;
12658;SDS011;6394;52.488;13.386;2022-10-31T10:20:10;31.47;;;19.90;;
12658;SDS011;6394;52.488;13.386;2022-10-31T10:22:43;35.33;;;20.60;;
12658;SDS011;6394;52.488;13.386;2022-10-31T10:25:14;29.60;;;20.07;;
12658;SDS011;6394;52.488;13.386;2022-10-31T10:27:50;29.10;;;20.50;;
12658;SDS011;6394;52.488;13.386;2022-10-31T10:30:23;25.90;;;18.70;;
12658;SDS011;6394;52.488;13.386;2022-10-31T10:32:55;28.87;;;20.57;;
12658;SDS011;6394;52.488;13.386;2022-10-31T10:35:26;32.90;;;20.80;;
12658;SDS011;6394;52.488;13.386;2022-10-31T10:38:03;30.83;;;20.33;;
12658;SDS011;6394;52.488;13.386;2022-10-31T10:40:35;25.47;;;20.07;;
12658;SDS011;6394;52.488;13.386;2022-10-31T10:43:11;27.97;;;19.30;;
12658;SDS011;6394;52.488;13.386;2022-10-31T10:45:44;31.10;;;19.43;;
12658;SDS011;6394;52.488;13.386;2022-10-31T10:48:32;30.30;;;19.37;;
12658;SDS011;6394;52.488;13.386;2022-10-31T10:51:05;26.17;;;19.10;;
12658;SDS011;6394;52.488;13.386;2022-10-31T10:53:38;25.60;;;20.03;;
12658;SDS011;6394;52.488;13.386;2022-10-31T10:56:26;31.13;;;20.07;;
12658;SDS011;6394;52.488;13.386;2022-10-31T10:58:55;29.33;;;19.80;;
12658;SDS011;6394;52.488;13.386;2022-10-31T11:01:23;34.93;;;20.33;;
12658;SDS011;6394;52.488;13.386;2022-10-31T11:03:50;29.13;;;20.20;;
12658;SDS011;6394;52.488;13.386;2022-10-31T11:06:18;30.63;;;20.17;;
12658;SDS011;6394;52.488;13.386;2022-10-31T11:08:48;27.23;;;19.33;;
12658;SDS011;6394;52.488;13.386;2022-10-31T11:11:20;28.40;;;20.27;;
12658;SDS011;6394;52.488;13.386;2022-10-31T11:13:53;31.30;;;19.73;;
12658;SDS011;6394;52.488;13.386;2022-10-31T11:16:30;31.00;;;19.00;;
12658;SDS011;6394;52.488;13.386;2022-10-31T11:19:13;28.13;;;19.50;;
12658;SDS011;6394;52.488;13.386;2022-10-31T11:21:46;26.87;;;20.07;;
12658;SDS011;6394;52.488;13.386;2022-10-31T11:24:19;27.77;;;20.03;;
12658;SDS011;6394;52.488;13.386;2022-10-31T11:26:50;30.63;;;20.90;;
12658;SDS011;6394;52.488;13.386;2022-10-31T11:29:20;28.73;;;18.97;;
12658;SDS011;6394;52.488;13.386;2022-10-31T11:31:49;27.53;;;19.70;;
12658;SDS011;6394;52.488;13.386;2022-10-31T11:34:20;26.10;;;18.30;;
12658;SDS011;6394;52.488;13.386;2022-10-31T11:37:02;25.53;;;17.70;;
12658;SDS011;6394;52.488;13.386;2022-10-31T11:39:31;28.10;;;19.63;;
12658;SDS011;6394;52.488;13.386;2022-10-31T11:41:59;25.97;;;16.97;;
12658;SDS011;6394;52.488;13.386;2022-10-31T11:44:29;26.87;;;17.73;;
12658;SDS011;6394;52.488;13.386;2022-10-31T11:46:58;29.37;;;17.87;;
12658;SDS011;6394;52.488;13.386;2022-10-31T11:52:15;26.77;;;18.37;;
12658;SDS011;6394;52.488;13.386;2022-10-31T11:54:46;23.60;;;17.63;;
12658;SDS011;6394;52.488;13.386;2022-10-31T11:57:21;26.73;;;19.33;;
12658;SDS011;6394;52.488;13.386;2022-10-31T11:59:50;24.37;;;17.90;;
12658;SDS011;6394;52.488;13.386;2022-10-31T12:02:18;27.00;;;18.30;;
12658;SDS011;6394;52.488;13.386;2022-10-31T12:04:46;29.07;;;18.07;;
12658;SDS011;6394;52.488;13.386;2022-10-31T12:07:16;25.27;;;17.43;;
12658;SDS011;6394;52.488;13.386;2022-10-31T12:09:43;28.13;;;18.47;;
12658;SDS011;6394;52.488;13.386;2022-10-31T12:12:37;23.60;;;18.00;;
12658;SDS011;6394;52.488;13.386;2022-10-31T12:15:13;27.33;;;18.50;;
12658;SDS011;6394;52.488;13.386;2022-10-31T12:17:44;29.60;;;18.03;;
12658;SDS011;6394;52.488;13.386;2022-10-31T12:20:17;29.83;;;18.83;;
12658;SDS011;6394;52.488;13.386;2022-10-31T12:22:51;30.10;;;19.77;;
12658;SDS011;6394;52.488;13.386;2022-10-31T12:25:27;27.53;;;20.07;;
12658;SDS011;6394;52.488;13.386;2022-10-31T12:28:03;26.73;;;18.40;;
12658;SDS011;6394;52.488;13.386;2022-10-31T12:30:37;25.87;;;18.50;;
12658;SDS011;6394;52.488;13.386;2022-10-31T12:33:13;23.67;;;17.27;;
12658;SDS011;6394;52.488;13.386;2022-10-31T12:35:48;25.83;;;17.50;;
12658;SDS011;6394;52.488;13.386;2022-10-31T12:38:30;25.53;;;18.23;;
12658;SDS011;6394;52.488;13.386;2022-10-31T12:41:03;26.90;;;17.87;;
12658;SDS011;6394;52.488;13.386;2022-10-31T12:43:39;24.83;;;17.73;;
12658;SDS011;6394;52.488;13.386;2022-10-31T12:46:10;28.93;;;18.13;;
12658;SDS011;6394;52.488;13.386;2022-10-31T12:51:28;28.77;;;16.93;;
12658;SDS011;6394;52.488;13.386;2022-10-31T12:56:42;27.07;;;18.93;;
12658;SDS011;6394;52.488;13.386;2022-10-31T12:59:14;23.23;;;17.40;;
12658;SDS011;6394;52.488;13.386;2022-10-31T13:01:45;24.77;;;17.57;;
12658;SDS011;6394;52.488;13.386;2022-10-31T13:04:15;24.67;;;17.63;;
12658;SDS011;6394;52.488;13.386;2022-10-31T13:06:45;26.53;;;18.20;;
12658;SDS011;6394;52.488;13.386;2022-10-31T13:09:15;23.47;;;17.03;;
12658;SDS011;6394;52.488;13.386;2022-10-31T13:11:44;25.83;;;17.93;;
12658;SDS011;6394;52.488;13.386;2022-10-31T13:14:17;23.23;;;16.87;;
12658;SDS011;6394;52.488;13.386;2022-10-31T13:16:49;28.70;;;17.97;;
12658;SDS011;6394;52.488;13.386;2022-10-31T13:19:17;29.10;;;17.70;;
12658;SDS011;6394;52.488;13.386;2022-10-31T13:21:49;21.50;;;17.83;;
12658;SDS011;6394;52.488;13.386;2022-10-31T13:24:22;25.23;;;18.53;;
12658;SDS011;6394;52.488;13.386;2022-10-31T13:26:52;24.80;;;17.40;;
12658;SDS011;6394;52.488;13.386;2022-10-31T13:29:21;27.57;;;17.50;;
12658;SDS011;6394;52.488;13.386;2022-10-31T13:31:50;29.00;;;18.50;;
12658;SDS011;6394;52.488;13.386;2022-10-31T13:34:19;25.60;;;18.20;;
12658;SDS011;6394;52.488;13.386;2022-10-31T13:36:50;27.97;;;18.37;;
12658;SDS011;6394;52.488;13.386;2022-10-31T13:39:23;24.80;;;17.87;;
12658;SDS011;6394;52.488;13.386;2022-10-31T13:41:52;29.70;;;18.20;;
12658;SDS011;6394;52.488;13.386;2022-10-31T13:44:22;29.60;;;18.63;;
12658;SDS011;6394;52.488;13.386;2022-10-31T13:46:51;26.67;;;19.23;;
12658;SDS011;6394;52.488;13.386;2022-10-31T13:49:38;28.47;;;19.10;;
12658;SDS011;6394;52.488;13.386;2022-10-31T13:52:12;28.77;;;19.67;;
12658;SDS011;6394;52.488;13.386;2022-10-31T13:54:40;29.10;;;20.20;;
12658;SDS011;6394;52.488;13.386;2022-10-31T13:57:13;29.50;;;19.63;;
12658;SDS011;6394;52.488;13.386;2022-10-31T13:59:46;29.97;;;21.63;;
12658;SDS011;6394;52.488;13.386;2022-10-31T14:02:15;28.93;;;19.13;;
12658;SDS011;6394;52.488;13.386;2022-10-31T14:04:44;33.53;;;19.27;;
12658;SDS011;6394;52.488;13.386;2022-10-31T14:07:12;30.90;;;18.87;;
12658;SDS011;6394;52.488;13.386;2022-10-31T14:09:41;27.60;;;20.03;;
12658;SDS011;6394;52.488;13.386;2022-10-31T14:12:22;29.30;;;19.93;;
12658;SDS011;6394;52.488;13.386;2022-10-31T14:14:52;31.77;;;20.60;;
12658;SDS011;6394;52.488;13.386;2022-10-31T14:17:22;30.23;;;21.00;;
12658;SDS011;6394;52.488;13.386;2022-10-31T14:19:56;28.80;;;22.30;;
12658;SDS011;6394;52.488;13.386;2022-10-31T14:22:30;27.57;;;20.67;;
12658;SDS011;6394;52.488;13.386;2022-10-31T14:24:57;29.07;;;20.77;;
12658;SDS011;6394;52.488;13.386;2022-10-31T14:27:35;30.90;;;23.33;;
12658;SDS011;6394;52.488;13.386;2022-10-31T14:30:16;30.73;;;23.57;;
12658;SDS011;6394;52.488;13.386;2022-10-31T14:32:44;34.07;;;24.63;;
12658;SDS011;6394;52.488;13.386;2022-10-31T14:35:15;32.90;;;25.43;;
12658;SDS011;6394;52.488;13.386;2022-10-31T14:37:54;33.33;;;26.73;;
12658;SDS011;6394;52.488;13.386;2022-10-31T14:40:29;38.27;;;28.63;;
12658;SDS011;6394;52.488;13.386;2022-10-31T14:45:48;38.80;;;27.97;;
12658;SDS011;6394;52.488;13.386;2022-10-31T14:48:31;40.40;;;28.30;;